KHSI

Hastings Municipal Airport

Hastings, Nebraska, USA
METAR KHSI 210653Z AUTO 00000KT 5SM BR FEW005 11/10 A3010 RMK AO2 SLP191 T01060100
Observed Flight Rules
May-21 @ 06:53 UTC (9 minutes ago) Marginal Visual Flight Rules
Visibility Clouds Conditions
5 miles
  • Few at 500' AGL
  • Mist
Temperatures Readings
Current 11°C / 52°F
Dewpoint 10°C / 50°F
Humidity 94%
Altimeter 30.1" Hg
Pressure 1019.1 hPa
Elevation 591
METAR KHSI 210653Z AUTO 00000KT 5SM BR FEW005 11/10 A3010 RMK AO2 SLP191 T01060100
Observed Flight Rules
May-21 @ 06:53 UTC
(9 minutes ago)
MVFR
Clouds
  • Few at 500' AGL
Conditions
  • Mist
Temperature Dewpoint
11°C / 52°F 10°C / 50°F
Humidity Altimeter Pressure
94% 30.1" Hg 1019.1 hPa